sensor_id;sensor_type;location;lat;lon;timestamp;temperature;humidity
33831;DHT22;20137;48.834;8.732;2024-03-23T10:30:10;5.70;99.90
33831;DHT22;20137;48.834;8.732;2024-03-23T10:32:37;4.90;99.90
33831;DHT22;20137;48.834;8.732;2024-03-23T10:35:17;4.40;99.90
33831;DHT22;20137;48.834;8.732;2024-03-23T10:37:45;4.20;99.90
33831;DHT22;20137;48.834;8.732;2024-03-23T10:40:13;4.10;99.90
33831;DHT22;20137;48.834;8.732;2024-03-23T10:42:39;4.20;99.90
33831;DHT22;20137;48.834;8.732;2024-03-23T10:45:06;4.50;99.90
33831;DHT22;20137;48.834;8.732;2024-03-23T10:47:33;4.80;99.90
33831;DHT22;20137;48.834;8.732;2024-03-23T10:49:59;5.00;99.90
33831;DHT22;20137;48.834;8.732;2024-03-23T10:52:25;4.90;99.90
33831;DHT22;20137;48.834;8.732;2024-03-23T10:54:51;5.40;99.90
33831;DHT22;20137;48.834;8.732;2024-03-23T10:57:20;5.80;99.90
33831;DHT22;20137;48.834;8.732;2024-03-23T10:59:47;6.30;99.90
33831;DHT22;20137;48.834;8.732;2024-03-23T11:02:20;6.60;99.90
33831;DHT22;20137;48.834;8.732;2024-03-23T11:04:46;6.60;99.90
33831;DHT22;20137;48.834;8.732;2024-03-23T11:07:32;6.60;99.90
33831;DHT22;20137;48.834;8.732;2024-03-23T11:09:59;6.80;99.90
33831;DHT22;20137;48.834;8.732;2024-03-23T11:12:26;6.70;99.90
33831;DHT22;20137;48.834;8.732;2024-03-23T11:17:23;6.60;99.90
33831;DHT22;20137;48.834;8.732;2024-03-23T11:20:07;6.80;99.90
33831;DHT22;20137;48.834;8.732;2024-03-23T11:22:42;6.80;99.90
33831;DHT22;20137;48.834;8.732;2024-03-23T11:25:19;6.90;99.90
33831;DHT22;20137;48.834;8.732;2024-03-23T11:28:10;7.10;99.90
33831;DHT22;20137;48.834;8.732;2024-03-23T11:30:37;7.20;99.90
33831;DHT22;20137;48.834;8.732;2024-03-23T11:33:05;7.30;99.90
33831;DHT22;20137;48.834;8.732;2024-03-23T11:35:37;7.30;99.90
33831;DHT22;20137;48.834;8.732;2024-03-23T11:38:04;7.50;99.90
33831;DHT22;20137;48.834;8.732;2024-03-23T11:40:30;7.60;99.90
33831;DHT22;20137;48.834;8.732;2024-03-23T11:42:58;7.40;99.90
33831;DHT22;20137;48.834;8.732;2024-03-23T11:45:24;7.10;99.90
33831;DHT22;20137;48.834;8.732;2024-03-23T11:48:04;6.90;99.90
33831;DHT22;20137;48.834;8.732;2024-03-23T11:50:30;6.80;99.90
33831;DHT22;20137;48.834;8.732;2024-03-23T11:55:47;7.20;99.90
33831;DHT22;20137;48.834;8.732;2024-03-23T11:58:15;7.60;99.90
33831;DHT22;20137;48.834;8.732;2024-03-23T12:00:41;7.60;99.90
33831;DHT22;20137;48.834;8.732;2024-03-23T12:03:07;7.50;99.90
33831;DHT22;20137;48.834;8.732;2024-03-23T12:05:33;7.20;99.90
33831;DHT22;20137;48.834;8.732;2024-03-23T12:08:34;7.20;99.90
33831;DHT22;20137;48.834;8.732;2024-03-23T12:11:11;7.20;99.90
33831;DHT22;20137;48.834;8.732;2024-03-23T12:13:38;7.50;99.90
33831;DHT22;20137;48.834;8.732;2024-03-23T12:18:47;7.30;99.90
33831;DHT22;20137;48.834;8.732;2024-03-23T12:21:13;7.50;99.90
33831;DHT22;20137;48.834;8.732;2024-03-23T12:23:39;7.50;99.90
33831;DHT22;20137;48.834;8.732;2024-03-23T12:26:05;7.80;99.90
33831;DHT22;20137;48.834;8.732;2024-03-23T12:28:32;7.80;99.90
33831;DHT22;20137;48.834;8.732;2024-03-23T12:30:58;7.90;99.90
33831;DHT22;20137;48.834;8.732;2024-03-23T12:33:23;7.90;99.90
33831;DHT22;20137;48.834;8.732;2024-03-23T12:35:52;7.90;99.90
33831;DHT22;20137;48.834;8.732;2024-03-23T12:38:19;7.80;99.90
33831;DHT22;20137;48.834;8.732;2024-03-23T12:40:49;7.90;99.90
33831;DHT22;20137;48.834;8.732;2024-03-23T12:43:15;7.90;99.90
33831;DHT22;20137;48.834;8.732;2024-03-23T12:45:41;7.80;99.90
33831;DHT22;20137;48.834;8.732;2024-03-23T12:48:07;8.00;99.90
33831;DHT22;20137;48.834;8.732;2024-03-23T12:50:32;8.10;99.90
33831;DHT22;20137;48.834;8.732;2024-03-23T12:52:58;8.20;99.90
33831;DHT22;20137;48.834;8.732;2024-03-23T12:55:24;8.30;99.90
33831;DHT22;20137;48.834;8.732;2024-03-23T12:57:50;8.30;99.90
33831;DHT22;20137;48.834;8.732;2024-03-23T13:00:15;8.40;99.90
33831;DHT22;20137;48.834;8.732;2024-03-23T13:02:42;8.30;99.90
33831;DHT22;20137;48.834;8.732;2024-03-23T13:05:08;8.40;99.90
33831;DHT22;20137;48.834;8.732;2024-03-23T13:07:34;8.40;99.90
33831;DHT22;20137;48.834;8.732;2024-03-23T13:10:01;8.40;99.90
33831;DHT22;20137;48.834;8.732;2024-03-23T13:12:26;8.60;99.90
33831;DHT22;20137;48.834;8.732;2024-03-23T13:14:52;8.90;99.90
33831;DHT22;20137;48.834;8.732;2024-03-23T13:17:18;8.70;99.90
33831;DHT22;20137;48.834;8.732;2024-03-23T13:19:44;8.90;99.90
33831;DHT22;20137;48.834;8.732;2024-03-23T13:22:09;8.90;99.90
33831;DHT22;20137;48.834;8.732;2024-03-23T13:24:38;8.50;99.90
33831;DHT22;20137;48.834;8.732;2024-03-23T13:27:04;8.30;99.90
33831;DHT22;20137;48.834;8.732;2024-03-23T13:29:33;8.00;99.90
33831;DHT22;20137;48.834;8.732;2024-03-23T13:32:00;7.50;99.90
33831;DHT22;20137;48.834;8.732;2024-03-23T13:34:25;7.00;99.90
33831;DHT22;20137;48.834;8.732;2024-03-23T13:36:51;6.60;99.90
33831;DHT22;20137;48.834;8.732;2024-03-23T13:39:19;6.10;99.90
33831;DHT22;20137;48.834;8.732;2024-03-23T13:41:45;5.40;99.90
33831;DHT22;20137;48.834;8.732;2024-03-23T13:44:12;4.90;99.90
33831;DHT22;20137;48.834;8.732;2024-03-23T13:46:40;4.80;99.90
33831;DHT22;20137;48.834;8.732;2024-03-23T13:49:06;4.80;99.90
33831;DHT22;20137;48.834;8.732;2024-03-23T13:51:32;5.00;99.90
33831;DHT22;20137;48.834;8.732;2024-03-23T13:53:58;5.00;99.90
33831;DHT22;20137;48.834;8.732;2024-03-23T13:56:30;5.00;99.90
33831;DHT22;20137;48.834;8.732;2024-03-23T13:58:56;5.10;99.90
33831;DHT22;20137;48.834;8.732;2024-03-23T14:01:22;5.10;99.90
33831;DHT22;20137;48.834;8.732;2024-03-23T14:03:47;5.20;99.90
33831;DHT22;20137;48.834;8.732;2024-03-23T14:06:13;5.40;99.90
33831;DHT22;20137;48.834;8.732;2024-03-23T14:08:38;5.70;99.90
33831;DHT22;20137;48.834;8.732;2024-03-23T14:11:05;6.10;99.90
33831;DHT22;20137;48.834;8.732;2024-03-23T14:13:31;6.30;99.90
33831;DHT22;20137;48.834;8.732;2024-03-23T14:15:58;6.50;99.90
33831;DHT22;20137;48.834;8.732;2024-03-23T14:18:24;6.70;99.90
33831;DHT22;20137;48.834;8.732;2024-03-23T14:20:50;6.60;99.90
33831;DHT22;20137;48.834;8.732;2024-03-23T14:23:16;6.30;99.90
33831;DHT22;20137;48.834;8.732;2024-03-23T14:25:42;6.30;99.90
33831;DHT22;20137;48.834;8.732;2024-03-23T14:28:08;6.40;99.90
33831;DHT22;20137;48.834;8.732;2024-03-23T14:30:41;6.50;99.90
33831;DHT22;20137;48.834;8.732;2024-03-23T14:33:07;6.40;99.90
33831;DHT22;20137;48.834;8.732;2024-03-23T14:35:33;6.10;99.90
33831;DHT22;20137;48.834;8.732;2024-03-23T14:37:59;5.80;99.90
33831;DHT22;20137;48.834;8.732;2024-03-23T14:40:24;5.70;99.90
33831;DHT22;20137;48.834;8.732;2024-03-23T14:42:54;5.60;99.90
33831;DHT22;20137;48.834;8.732;2024-03-23T14:45:21;5.60;99.90
33831;DHT22;20137;48.834;8.732;2024-03-23T14:47:47;5.60;99.90
33831;DHT22;20137;48.834;8.732;2024-03-23T14:50:13;5.70;99.90
33831;DHT22;20137;48.834;8.732;2024-03-23T14:52:44;5.70;99.90
33831;DHT22;20137;48.834;8.732;2024-03-23T14:55:13;5.80;99.90
33831;DHT22;20137;48.834;8.732;2024-03-23T14:57:39;5.90;99.90
33831;DHT22;20137;48.834;8.732;2024-03-23T15:00:09;5.70;99.90
33831;DHT22;20137;48.834;8.732;2024-03-23T15:02:38;5.50;99.90
33831;DHT22;20137;48.834;8.732;2024-03-23T15:05:05;5.40;99.90
33831;DHT22;20137;48.834;8.732;2024-03-23T15:07:34;5.40;99.90
33831;DHT22;20137;48.834;8.732;2024-03-23T15:10:00;5.60;99.90
33831;DHT22;20137;48.834;8.732;2024-03-23T15:12:25;5.80;99.90
33831;DHT22;20137;48.834;8.732;2024-03-23T15:14:51;6.00;99.90
33831;DHT22;20137;48.834;8.732;2024-03-23T15:17:17;6.20;99.90
33831;DHT22;20137;48.834;8.732;2024-03-23T15:19:44;6.30;99.90
33831;DHT22;20137;48.834;8.732;2024-03-23T15:22:09;6.30;99.90
33831;DHT22;20137;48.834;8.732;2024-03-23T15:24:35;6.30;99.90
33831;DHT22;20137;48.834;8.732;2024-03-23T15:27:02;6.40;99.90
33831;DHT22;20137;48.834;8.732;2024-03-23T15:29:28;6.40;99.90
33831;DHT22;20137;48.834;8.732;2024-03-23T15:31:54;6.60;99.90
33831;DHT22;20137;48.834;8.732;2024-03-23T15:34:20;6.60;99.90
33831;DHT22;20137;48.834;8.732;2024-03-23T15:36:49;6.60;99.90
33831;DHT22;20137;48.834;8.732;2024-03-23T15:39:16;6.70;99.90
33831;DHT22;20137;48.834;8.732;2024-03-23T15:41:46;6.80;99.90
33831;DHT22;20137;48.834;8.732;2024-03-23T15:44:12;6.80;99.90
33831;DHT22;20137;48.834;8.732;2024-03-23T15:46:38;6.80;99.90
33831;DHT22;20137;48.834;8.732;2024-03-23T15:49:03;6.80;99.90
33831;DHT22;20137;48.834;8.732;2024-03-23T15:51:30;6.60;99.90
33831;DHT22;20137;48.834;8.732;2024-03-23T15:54:00;6.60;99.90
33831;DHT22;20137;48.834;8.732;2024-03-23T15:56:28;6.50;99.90
33831;DHT22;20137;48.834;8.732;2024-03-23T15:58:54;6.40;99.90
33831;DHT22;20137;48.834;8.732;2024-03-23T16:01:20;6.30;99.90
33831;DHT22;20137;48.834;8.732;2024-03-23T16:03:46;6.20;99.90
33831;DHT22;20137;48.834;8.732;2024-03-23T16:06:11;6.20;99.90
33831;DHT22;20137;48.834;8.732;2024-03-23T16:08:37;6.10;99.90
33831;DHT22;20137;48.834;8.732;2024-03-23T16:11:07;6.20;99.90
33831;DHT22;20137;48.834;8.732;2024-03-23T16:13:34;6.10;99.90
33831;DHT22;20137;48.834;8.732;2024-03-23T16:16:03;6.00;99.90
33831;DHT22;20137;48.834;8.732;2024-03-23T16:18:32;5.90;99.90
33831;DHT22;20137;48.834;8.732;2024-03-23T16:20:59;5.80;99.90
33831;DHT22;20137;48.834;8.732;2024-03-23T16:23:25;5.20;99.90
33831;DHT22;20137;48.834;8.732;2024-03-23T16:25:52;4.90;99.90
33831;DHT22;20137;48.834;8.732;2024-03-23T16:28:25;4.80;99.90
33831;DHT22;20137;48.834;8.732;2024-03-23T16:31:03;4.90;99.90
33831;DHT22;20137;48.834;8.732;2024-03-23T16:33:29;4.90;99.90
33831;DHT22;20137;48.834;8.732;2024-03-23T16:36:05;4.90;99.90
33831;DHT22;20137;48.834;8.732;2024-03-23T16:38:32;4.90;99.90
33831;DHT22;20137;48.834;8.732;2024-03-23T16:41:02;5.00;99.90
33831;DHT22;20137;48.834;8.732;2024-03-23T16:43:28;4.90;99.90
33831;DHT22;20137;48.834;8.732;2024-03-23T16:45:59;4.90;99.90
33831;DHT22;20137;48.834;8.732;2024-03-23T16:48:27;4.80;99.90
33831;DHT22;20137;48.834;8.732;2024-03-23T16:50:56;4.90;99.90
33831;DHT22;20137;48.834;8.732;2024-03-23T16:53:21;4.80;99.90
33831;DHT22;20137;48.834;8.732;2024-03-23T16:55:57;4.80;99.90
33831;DHT22;20137;48.834;8.732;2024-03-23T16:58:29;4.70;99.90
33831;DHT22;20137;48.834;8.732;2024-03-23T17:00:55;4.70;99.90
33831;DHT22;20137;48.834;8.732;2024-03-23T17:03:23;4.70;99.90
33831;DHT22;20137;48.834;8.732;2024-03-23T17:05:49;4.70;99.90
33831;DHT22;20137;48.834;8.732;2024-03-23T17:08:16;4.60;99.90
33831;DHT22;20137;48.834;8.732;2024-03-23T17:10:42;4.40;99.90
33831;DHT22;20137;48.834;8.732;2024-03-23T17:13:08;4.00;99.90
33831;DHT22;20137;48.834;8.732;2024-03-23T17:15:41;3.80;99.90
33831;DHT22;20137;48.834;8.732;2024-03-23T17:18:07;3.70;99.90
33831;DHT22;20137;48.834;8.732;2024-03-23T17:20:32;3.60;99.90
33831;DHT22;20137;48.834;8.732;2024-03-23T17:22:58;3.50;99.90
33831;DHT22;20137;48.834;8.732;2024-03-23T17:25:24;3.10;99.90
33831;DHT22;20137;48.834;8.732;2024-03-23T17:27:49;2.80;99.90
33831;DHT22;20137;48.834;8.732;2024-03-23T17:30:15;2.60;99.90
33831;DHT22;20137;48.834;8.732;2024-03-23T17:32:42;2.40;99.90
33831;DHT22;20137;48.834;8.732;2024-03-23T17:35:12;2.40;99.90
33831;DHT22;20137;48.834;8.732;2024-03-23T17:37:38;2.30;99.90
33831;DHT22;20137;48.834;8.732;2024-03-23T17:40:06;2.30;99.90
33831;DHT22;20137;48.834;8.732;2024-03-23T17:42:36;2.30;99.90
33831;DHT22;20137;48.834;8.732;2024-03-23T17:45:04;2.20;99.90
33831;DHT22;20137;48.834;8.732;2024-03-23T17:47:37;2.20;99.90
33831;DHT22;20137;48.834;8.732;2024-03-23T17:50:03;2.30;99.90
33831;DHT22;20137;48.834;8.732;2024-03-23T17:52:30;2.30;99.90
33831;DHT22;20137;48.834;8.732;2024-03-23T17:54:55;2.40;99.90
33831;DHT22;20137;48.834;8.732;2024-03-23T17:57:22;2.50;99.90
33831;DHT22;20137;48.834;8.732;2024-03-23T17:59:47;2.50;99.90
33831;DHT22;20137;48.834;8.732;2024-03-23T18:02:16;2.60;99.90
33831;DHT22;20137;48.834;8.732;2024-03-23T18:04:43;2.60;99.90
33831;DHT22;20137;48.834;8.732;2024-03-23T18:07:09;2.70;99.90
33831;DHT22;20137;48.834;8.732;2024-03-23T18:09:34;3.10;99.90
33831;DHT22;20137;48.834;8.732;2024-03-23T18:12:00;2.80;99.90
33831;DHT22;20137;48.834;8.732;2024-03-23T18:14:28;2.80;99.90
33831;DHT22;20137;48.834;8.732;2024-03-23T18:16:54;3.00;99.90
33831;DHT22;20137;48.834;8.732;2024-03-23T18:19:19;2.90;99.90
33831;DHT22;20137;48.834;8.732;2024-03-23T18:21:45;2.90;99.90
33831;DHT22;20137;48.834;8.732;2024-03-23T18:24:11;2.90;99.90
33831;DHT22;20137;48.834;8.732;2024-03-23T18:26:36;2.90;99.90
33831;DHT22;20137;48.834;8.732;2024-03-23T18:29:02;2.90;99.90
33831;DHT22;20137;48.834;8.732;2024-03-23T18:31:28;3.10;99.90
33831;DHT22;20137;48.834;8.732;2024-03-23T18:33:54;3.00;99.90
33831;DHT22;20137;48.834;8.732;2024-03-23T18:36:21;2.90;99.90
33831;DHT22;20137;48.834;8.732;2024-03-23T18:38:47;3.00;99.90
33831;DHT22;20137;48.834;8.732;2024-03-23T18:41:12;2.90;99.90
33831;DHT22;20137;48.834;8.732;2024-03-23T18:43:38;2.90;99.90
33831;DHT22;20137;48.834;8.732;2024-03-23T18:46:04;2.90;99.90
33831;DHT22;20137;48.834;8.732;2024-03-23T18:48:29;3.00;99.90
33831;DHT22;20137;48.834;8.732;2024-03-23T18:50:57;3.10;99.90
33831;DHT22;20137;48.834;8.732;2024-03-23T18:53:22;2.90;99.90
33831;DHT22;20137;48.834;8.732;2024-03-23T18:55:53;3.00;99.90
33831;DHT22;20137;48.834;8.732;2024-03-23T18:58:19;3.00;99.90
33831;DHT22;20137;48.834;8.732;2024-03-23T19:00:45;2.90;99.90
33831;DHT22;20137;48.834;8.732;2024-03-23T19:03:11;3.00;99.90
33831;DHT22;20137;48.834;8.732;2024-03-23T19:05:36;2.90;99.90
33831;DHT22;20137;48.834;8.732;2024-03-23T19:08:02;2.80;99.90
33831;DHT22;20137;48.834;8.732;2024-03-23T19:10:29;2.70;99.90
33831;DHT22;20137;48.834;8.732;2024-03-23T19:12:55;2.70;99.90
33831;DHT22;20137;48.834;8.732;2024-03-23T19:15:20;2.60;99.90
33831;DHT22;20137;48.834;8.732;2024-03-23T19:17:46;2.70;99.90
33831;DHT22;20137;48.834;8.732;2024-03-23T19:20:12;2.60;99.90
33831;DHT22;20137;48.834;8.732;2024-03-23T19:22:39;2.60;99.90
33831;DHT22;20137;48.834;8.732;2024-03-23T19:25:05;2.60;99.90
33831;DHT22;20137;48.834;8.732;2024-03-23T19:27:37;2.60;99.90
33831;DHT22;20137;48.834;8.732;2024-03-23T19:30:07;2.60;99.90
33831;DHT22;20137;48.834;8.732;2024-03-23T19:32:35;2.60;99.90
33831;DHT22;20137;48.834;8.732;2024-03-23T19:35:01;2.70;99.90
33831;DHT22;20137;48.834;8.732;2024-03-23T19:37:27;2.60;99.90
33831;DHT22;20137;48.834;8.732;2024-03-23T19:39:53;2.60;99.90
33831;DHT22;20137;48.834;8.732;2024-03-23T19:42:18;2.60;99.90
33831;DHT22;20137;48.834;8.732;2024-03-23T19:44:45;2.50;99.90
33831;DHT22;20137;48.834;8.732;2024-03-23T19:47:10;2.50;99.90
33831;DHT22;20137;48.834;8.732;2024-03-23T19:49:36;2.60;99.90
33831;DHT22;20137;48.834;8.732;2024-03-23T19:52:02;2.60;99.90
33831;DHT22;20137;48.834;8.732;2024-03-23T19:54:29;2.60;99.90
33831;DHT22;20137;48.834;8.732;2024-03-23T19:56:54;2.70;99.90
33831;DHT22;20137;48.834;8.732;2024-03-23T19:59:20;2.60;99.90
33831;DHT22;20137;48.834;8.732;2024-03-23T20:01:46;2.70;99.90
33831;DHT22;20137;48.834;8.732;2024-03-23T20:04:12;2.60;99.90
33831;DHT22;20137;48.834;8.732;2024-03-23T20:06:38;2.70;99.90
33831;DHT22;20137;48.834;8.732;2024-03-23T20:09:04;2.70;99.90
33831;DHT22;20137;48.834;8.732;2024-03-23T20:11:30;2.70;99.90
33831;DHT22;20137;48.834;8.732;2024-03-23T20:13:56;2.70;99.90
33831;DHT22;20137;48.834;8.732;2024-03-23T20:16:21;2.70;99.90
33831;DHT22;20137;48.834;8.732;2024-03-23T20:18:53;2.70;99.90
33831;DHT22;20137;48.834;8.732;2024-03-23T20:21:19;2.70;99.90
33831;DHT22;20137;48.834;8.732;2024-03-23T20:23:45;2.80;99.90
33831;DHT22;20137;48.834;8.732;2024-03-23T20:26:11;2.70;99.90
33831;DHT22;20137;48.834;8.732;2024-03-23T20:28:36;2.80;99.90
33831;DHT22;20137;48.834;8.732;2024-03-23T20:31:03;2.70;99.90
33831;DHT22;20137;48.834;8.732;2024-03-23T20:33:29;2.70;99.90
33831;DHT22;20137;48.834;8.732;2024-03-23T20:35:55;2.70;99.90
33831;DHT22;20137;48.834;8.732;2024-03-23T20:38:22;2.80;99.90
33831;DHT22;20137;48.834;8.732;2024-03-23T20:40:58;2.70;99.90
33831;DHT22;20137;48.834;8.732;2024-03-23T20:43:24;2.70;99.90
33831;DHT22;20137;48.834;8.732;2024-03-23T20:45:58;2.70;99.90
33831;DHT22;20137;48.834;8.732;2024-03-23T20:48:25;2.70;99.90
33831;DHT22;20137;48.834;8.732;2024-03-23T20:50:59;2.70;99.90
33831;DHT22;20137;48.834;8.732;2024-03-23T20:53:26;2.60;99.90
33831;DHT22;20137;48.834;8.732;2024-03-23T20:55:57;2.60;99.90
33831;DHT22;20137;48.834;8.732;2024-03-23T20:58:24;2.50;99.90
33831;DHT22;20137;48.834;8.732;2024-03-23T21:00:51;2.50;99.90
33831;DHT22;20137;48.834;8.732;2024-03-23T21:03:17;2.50;99.90
33831;DHT22;20137;48.834;8.732;2024-03-23T21:05:43;2.50;99.90
33831;DHT22;20137;48.834;8.732;2024-03-23T21:08:12;2.50;99.90
33831;DHT22;20137;48.834;8.732;2024-03-23T21:10:38;2.40;99.90
33831;DHT22;20137;48.834;8.732;2024-03-23T21:13:04;2.40;99.90
33831;DHT22;20137;48.834;8.732;2024-03-23T21:15:30;2.30;99.90
33831;DHT22;20137;48.834;8.732;2024-03-23T21:17:56;2.70;99.90
33831;DHT22;20137;48.834;8.732;2024-03-23T21:20:22;2.30;99.90
33831;DHT22;20137;48.834;8.732;2024-03-23T21:22:52;2.30;99.90
33831;DHT22;20137;48.834;8.732;2024-03-23T21:25:18;2.20;99.90
33831;DHT22;20137;48.834;8.732;2024-03-23T21:27:43;2.20;99.90
33831;DHT22;20137;48.834;8.732;2024-03-23T21:30:09;2.30;99.90
33831;DHT22;20137;48.834;8.732;2024-03-23T21:32:35;2.10;99.90
33831;DHT22;20137;48.834;8.732;2024-03-23T21:35:01;2.10;99.90
33831;DHT22;20137;48.834;8.732;2024-03-23T21:37:26;2.10;99.90
33831;DHT22;20137;48.834;8.732;2024-03-23T21:39:52;2.20;99.90
33831;DHT22;20137;48.834;8.732;2024-03-23T21:42:18;2.00;99.90
33831;DHT22;20137;48.834;8.732;2024-03-23T21:44:43;2.00;99.90
33831;DHT22;20137;48.834;8.732;2024-03-23T21:47:09;1.90;99.90
33831;DHT22;20137;48.834;8.732;2024-03-23T21:49:35;2.00;99.90
33831;DHT22;20137;48.834;8.732;2024-03-23T21:52:01;1.90;99.90
33831;DHT22;20137;48.834;8.732;2024-03-23T21:54:29;1.90;99.90
33831;DHT22;20137;48.834;8.732;2024-03-23T21:56:55;2.00;99.90
33831;DHT22;20137;48.834;8.732;2024-03-23T21:59:21;2.00;99.90
33831;DHT22;20137;48.834;8.732;2024-03-23T22:01:47;2.10;99.90
33831;DHT22;20137;48.834;8.732;2024-03-23T22:04:12;2.10;99.90
33831;DHT22;20137;48.834;8.732;2024-03-23T22:06:38;2.20;99.90
33831;DHT22;20137;48.834;8.732;2024-03-23T22:09:04;2.40;99.90
33831;DHT22;20137;48.834;8.732;2024-03-23T22:11:32;2.30;99.90
33831;DHT22;20137;48.834;8.732;2024-03-23T22:13:58;2.30;99.90
33831;DHT22;20137;48.834;8.732;2024-03-23T22:16:25;2.40;99.90
33831;DHT22;20137;48.834;8.732;2024-03-23T22:18:50;2.40;99.90
33831;DHT22;20137;48.834;8.732;2024-03-23T22:21:16;2.40;99.90
33831;DHT22;20137;48.834;8.732;2024-03-23T22:23:42;2.40;99.90
33831;DHT22;20137;48.834;8.732;2024-03-23T22:26:08;2.50;99.90
33831;DHT22;20137;48.834;8.732;2024-03-23T22:28:34;2.40;99.90
33831;DHT22;20137;48.834;8.732;2024-03-23T22:31:00;2.60;99.90
33831;DHT22;20137;48.834;8.732;2024-03-23T22:33:27;2.50;99.90
33831;DHT22;20137;48.834;8.732;2024-03-23T22:35:54;2.60;99.90
33831;DHT22;20137;48.834;8.732;2024-03-23T22:38:23;2.50;99.90
33831;DHT22;20137;48.834;8.732;2024-03-23T22:40:56;3.20;99.90
33831;DHT22;20137;48.834;8.732;2024-03-23T22:43:23;2.70;99.90
33831;DHT22;20137;48.834;8.732;2024-03-23T22:45:55;2.70;99.90
33831;DHT22;20137;48.834;8.732;2024-03-23T22:48:23;2.80;99.90
33831;DHT22;20137;48.834;8.732;2024-03-23T22:50:50;2.80;99.90
33831;DHT22;20137;48.834;8.732;2024-03-23T22:53:16;2.90;99.90
33831;DHT22;20137;48.834;8.732;2024-03-23T22:55:47;3.10;99.90
33831;DHT22;20137;48.834;8.732;2024-03-23T22:58:13;3.00;99.90
33831;DHT22;20137;48.834;8.732;2024-03-23T23:00:40;2.90;99.90
33831;DHT22;20137;48.834;8.732;2024-03-23T23:03:12;2.90;99.90
33831;DHT22;20137;48.834;8.732;2024-03-23T23:05:39;2.90;99.90
33831;DHT22;20137;48.834;8.732;2024-03-23T23:08:05;2.90;99.90
33831;DHT22;20137;48.834;8.732;2024-03-23T23:10:31;3.00;99.90
33831;DHT22;20137;48.834;8.732;2024-03-23T23:12:57;2.90;99.90
33831;DHT22;20137;48.834;8.732;2024-03-23T23:15:23;2.90;99.90
33831;DHT22;20137;48.834;8.732;2024-03-23T23:17:48;2.90;99.90
33831;DHT22;20137;48.834;8.732;2024-03-23T23:20:15;3.00;99.90
33831;DHT22;20137;48.834;8.732;2024-03-23T23:22:41;2.90;99.90
33831;DHT22;20137;48.834;8.732;2024-03-23T23:25:07;3.00;99.90
33831;DHT22;20137;48.834;8.732;2024-03-23T23:27:33;3.00;99.90
33831;DHT22;20137;48.834;8.732;2024-03-23T23:29:58;2.90;99.90
33831;DHT22;20137;48.834;8.732;2024-03-23T23:32:24;2.90;99.90
33831;DHT22;20137;48.834;8.732;2024-03-23T23:34:49;3.00;99.90
33831;DHT22;20137;48.834;8.732;2024-03-23T23:37:15;3.00;99.90
33831;DHT22;20137;48.834;8.732;2024-03-23T23:39:41;3.00;99.90
33831;DHT22;20137;48.834;8.732;2024-03-23T23:42:06;3.00;99.90
33831;DHT22;20137;48.834;8.732;2024-03-23T23:44:32;3.00;99.90
33831;DHT22;20137;48.834;8.732;2024-03-23T23:46:57;3.00;99.90
33831;DHT22;20137;48.834;8.732;2024-03-23T23:49:23;3.00;99.90
33831;DHT22;20137;48.834;8.732;2024-03-23T23:51:49;2.90;99.90
33831;DHT22;20137;48.834;8.732;2024-03-23T23:54:14;3.00;99.90
33831;DHT22;20137;48.834;8.732;2024-03-23T23:56:40;3.00;99.90
33831;DHT22;20137;48.834;8.732;2024-03-23T23:59:06;2.90;99.90
